Time;durP1;ratioP1;P1;durP2;ratioP2;P2;SDS_P1;SDS_P2;PMS_P1;PMS_P2;Temp;Humidity;BMP_temperature;BMP_pressure;BME280_temperature;BME280_humidity;BME280_pressure;Samples;Min_cycle;Max_cycle;Signal;HPM_P1;HPM_P2
2020/12/15 00:01:52;;;;;;;21.40;16.77;;;5.50;99.90;;;3.82;100.00;100194.09;5025989;27;100313;-62
2020/12/15 00:04:18;;;;;;;21.57;17.23;;;5.50;99.90;;;3.85;100.00;100197.34;5027302;27;100093;-63
2020/12/15 00:06:48;;;;;;;22.63;16.97;;;5.50;99.90;;;3.78;100.00;100205.88;5020414;27;100530;-62
2020/12/15 00:09:15;;;;;;;20.27;15.97;;;5.40;99.90;;;3.73;100.00;100200.91;5006245;27;101189;-62
2020/12/15 00:11:41;;;;;;;23.67;17.13;;;5.50;99.90;;;3.71;100.00;100208.13;5005294;27;100088;-62
2020/12/15 00:14:11;;;;;;;22.73;17.53;;;5.40;99.90;;;3.77;100.00;100209.47;5006519;27;100085;-61
2020/12/15 00:16:37;;;;;;;20.23;15.80;;;5.60;99.90;;;3.85;100.00;100212.38;5024428;27;101483;-62
2020/12/15 00:19:03;;;;;;;19.93;16.70;;;5.40;99.90;;;3.86;100.00;100201.66;5029393;27;100263;-62
2020/12/15 00:21:30;;;;;;;19.83;16.37;;;5.60;99.90;;;3.78;100.00;100204.06;5029601;27;100262;-62
2020/12/15 00:24:00;;;;;;;22.27;17.10;;;5.40;99.90;;;3.82;100.00;100204.69;5013700;27;100063;-62
2020/12/15 00:26:27;;;;;;;22.10;17.10;;;5.50;99.90;;;3.81;100.00;100198.56;5008616;27;101013;-63
2020/12/15 00:28:54;;;;;;;21.70;17.33;;;5.60;99.90;;;3.82;100.00;100200.25;5025615;27;101397;-62
2020/12/15 00:31:21;;;;;;;22.03;17.53;;;5.60;99.90;;;3.80;100.00;100201.31;5030075;27;100179;-63
2020/12/15 00:33:47;;;;;;;20.87;16.27;;;5.60;99.90;;;3.81;100.00;100197.72;5030291;27;100001;-61
2020/12/15 00:36:18;;;;;;;21.90;16.80;;;5.50;99.90;;;3.76;100.00;100202.50;5027635;27;101252;-61
2020/12/15 00:38:45;;;;;;;22.37;17.57;;;5.60;99.90;;;3.82;100.00;100197.59;5029440;27;101124;-60
2020/12/15 00:41:15;;;;;;;21.47;16.67;;;5.50;99.90;;;3.78;100.00;100193.47;5029219;27;100336;-62
2020/12/15 00:43:41;;;;;;;21.00;16.87;;;5.70;99.90;;;3.78;100.00;100190.00;5028909;27;100172;-62
2020/12/15 00:46:13;;;;;;;19.87;15.83;;;5.50;99.90;;;3.82;100.00;100187.00;5043466;27;102507;-63
2020/12/15 00:48:40;;;;;;;20.23;15.47;;;5.50;99.90;;;3.73;100.00;100181.53;5028818;27;100774;-62
2020/12/15 00:51:06;;;;;;;18.80;14.97;;;5.60;99.90;;;3.81;100.00;100173.88;5026799;27;100312;-62
2020/12/15 00:53:33;;;;;;;22.53;16.57;;;5.60;99.90;;;3.82;100.00;100175.56;5027684;27;100479;-62
2020/12/15 00:56:00;;;;;;;19.73;15.93;;;5.60;99.90;;;3.81;100.00;100169.44;5018044;27;101431;-61
2020/12/15 00:58:27;;;;;;;19.13;15.33;;;5.60;99.90;;;3.81;100.00;100161.50;5006299;27;101421;-62
2020/12/15 01:00:54;;;;;;;21.27;16.00;;;5.50;99.90;;;3.87;100.00;100163.66;5017808;27;100160;-62
2020/12/15 01:03:20;;;;;;;18.30;15.23;;;5.70;99.90;;;3.88;100.00;100157.41;5028799;27;100132;-63
2020/12/15 01:05:48;;;;;;;18.10;15.23;;;5.50;99.90;;;3.93;100.00;100168.50;5026455;27;102673;-62
2020/12/15 01:08:14;;;;;;;20.50;15.80;;;5.60;99.90;;;3.94;100.00;100156.94;5026178;27;102477;-62
2020/12/15 01:10:40;;;;;;;17.60;14.57;;;5.60;99.90;;;3.92;100.00;100160.66;5026927;27;100360;-62
2020/12/15 01:13:08;;;;;;;20.97;15.60;;;5.70;99.90;;;4.01;100.00;100152.00;5006248;27;100179;-61
2020/12/15 01:15:36;;;;;;;17.90;14.77;;;5.70;99.90;;;3.98;100.00;100161.00;5008124;27;101788;-62
2020/12/15 01:18:03;;;;;;;18.37;15.30;;;5.50;99.90;;;3.97;100.00;100150.53;5006961;27;103080;-62
2020/12/15 01:20:40;;;;;;;17.77;14.60;;;5.70;99.90;;;3.93;100.00;100151.75;5006189;27;100067;-62
2020/12/15 01:23:07;;;;;;;18.80;14.67;;;5.60;99.90;;;3.85;100.00;100149.69;5006506;27;100420;-63
2020/12/15 01:25:41;;;;;;;17.10;15.23;;;5.80;99.90;;;3.88;100.00;100152.09;5005383;27;102722;-61
2020/12/15 01:28:08;;;;;;;18.43;16.33;;;5.70;99.90;;;3.86;100.00;100161.13;5006213;27;102557;-62
2020/12/15 01:30:36;;;;;;;18.30;14.23;;;5.70;99.90;;;3.79;100.00;100155.47;5005552;27;100305;-62
2020/12/15 01:33:21;;;;;;;18.97;14.87;;;5.60;99.90;;;3.81;100.00;100155.34;5005991;27;100359;-63
2020/12/15 01:36:07;;;;;;;17.07;13.37;;;5.60;99.90;;;3.81;100.00;100158.00;5005467;27;100889;-62
2020/12/15 01:38:46;;;;;;;18.20;14.30;;;5.60;99.90;;;3.72;100.00;100154.25;5006262;27;102625;-62
2020/12/15 01:41:15;;;;;;;15.43;13.37;;;5.60;99.90;;;3.80;100.00;100145.72;5005906;27;100420;-61
2020/12/15 01:43:52;;;;;;;17.87;15.10;;;5.80;99.90;;;3.98;100.00;100149.59;5006730;27;100447;-63
2020/12/15 01:46:24;;;;;;;19.57;15.30;;;5.70;99.90;;;3.93;100.00;100149.13;5007554;27;101574;-62
2020/12/15 01:48:51;;;;;;;16.07;13.57;;;5.60;99.90;;;3.95;100.00;100147.19;5011077;27;101344;-62
2020/12/15 01:51:18;;;;;;;18.23;14.47;;;5.70;99.90;;;3.95;100.00;100150.69;5006336;27;100169;-62
2020/12/15 01:53:49;;;;;;;20.97;14.67;;;5.60;99.90;;;3.95;100.00;100148.03;5023178;27;100373;-62
2020/12/15 01:56:16;;;;;;;17.43;14.17;;;5.60;99.90;;;4.03;100.00;100151.88;5022419;27;102645;-62
2020/12/15 01:58:52;;;;;;;20.13;14.60;;;5.70;99.90;;;4.00;100.00;100152.13;5028182;27;103158;-62
2020/12/15 02:01:19;;;;;;;16.13;13.57;;;5.80;99.90;;;4.11;100.00;100131.78;5005185;27;100145;-62
2020/12/15 02:03:50;;;;;;;19.00;15.10;;;5.70;99.90;;;4.11;100.00;100139.72;5005819;27;100262;-63
2020/12/15 02:06:28;;;;;;;18.93;15.30;;;5.80;99.90;;;4.21;100.00;100131.88;5004704;27;103235;-61
2020/12/15 02:09:11;;;;;;;18.93;15.50;;;5.80;99.90;;;4.20;100.00;100122.28;5008244;27;102397;-62
2020/12/15 02:11:43;;;;;;;19.77;15.33;;;5.80;99.90;;;4.17;100.00;100123.34;5042113;27;100528;-61
2020/12/15 02:14:11;;;;;;;17.47;14.73;;;5.70;99.90;;;4.17;100.00;100122.53;5043267;27;100223;-60
2020/12/15 02:16:41;;;;;;;18.43;14.67;;;5.80;99.90;;;4.25;100.00;100125.38;5026797;27;100618;-63
2020/12/15 02:19:17;;;;;;;20.00;15.83;;;5.90;99.90;;;4.28;100.00;100125.16;5025054;27;102047;-61
2020/12/15 02:21:54;;;;;;;20.67;15.80;;;6.70;99.90;;;4.28;100.00;100130.44;5025678;27;100475;-62
2020/12/15 02:24:23;;;;;;;19.73;15.27;;;6.10;99.90;;;4.24;100.00;100116.59;5025542;27;100539;-62
2020/12/15 02:27:07;;;;;;;19.23;15.73;;;5.90;99.90;;;4.22;100.00;100113.22;5012136;27;102671;-64
2020/12/15 02:29:39;;;;;;;19.47;15.20;;;5.90;99.90;;;4.24;100.00;100111.31;5004620;27;100583;-64
2020/12/15 02:32:05;;;;;;;21.07;16.17;;;5.90;99.90;;;4.26;100.00;100105.88;5007452;27;100212;-63
2020/12/15 02:34:37;;;;;;;19.33;16.90;;;6.10;99.90;;;4.30;100.00;100102.03;5005787;27;100516;-63
2020/12/15 02:37:08;;;;;;;20.40;15.63;;;6.10;99.90;;;4.32;100.00;100102.75;5004708;27;101337;-62
2020/12/15 02:39:45;;;;;;;20.70;15.90;;;6.00;99.90;;;4.33;100.00;100097.31;5004525;27;102233;-62
2020/12/15 02:42:23;;;;;;;19.07;15.70;;;6.00;99.90;;;4.33;100.00;100101.78;5004270;27;100096;-62
2020/12/15 02:44:49;;;;;;;20.43;16.53;;;6.20;99.90;;;4.32;100.00;100111.56;5004762;27;100200;-63
2020/12/15 02:47:23;;;;;;;17.53;13.10;;;6.20;99.90;;;4.31;100.00;100120.47;5004648;27;102803;-62
2020/12/15 02:49:49;;;;;;;20.43;15.43;;;6.10;99.90;;;4.33;100.00;100107.06;5006795;27;101436;-63
2020/12/15 02:52:19;;;;;;;18.13;14.77;;;6.00;99.90;;;4.27;100.00;100111.06;5006731;27;99988;-63
2020/12/15 02:54:48;;;;;;;17.00;14.00;;;6.10;99.90;;;4.30;100.00;100123.22;5004746;27;100307;-63
2020/12/15 02:57:15;;;;;;;18.47;15.50;;;6.00;99.90;;;4.25;100.00;100123.59;5021641;27;102306;-63
2020/12/15 02:59:43;;;;;;;19.37;15.70;;;4.90;99.90;;;4.17;100.00;100123.34;5004398;27;100455;-63
2020/12/15 03:02:18;;;;;;;19.33;14.40;;;6.10;99.90;;;4.18;100.00;100127.69;5021510;27;100033;-62
2020/12/15 03:04:45;;;;;;;18.63;16.63;;;6.10;99.90;;;4.21;100.00;100127.44;5006806;27;100337;-62
2020/12/15 03:07:11;;;;;;;20.80;15.40;;;6.00;99.90;;;4.11;100.00;100131.78;5041180;27;103416;-63
2020/12/15 03:09:48;;;;;;;21.30;15.83;;;7.00;99.90;;;4.13;100.00;100131.66;5024508;27;102132;-62
2020/12/15 03:12:15;;;;;;;20.97;15.60;;;6.00;99.90;;;4.09;100.00;100117.81;5041673;27;100256;-63
2020/12/15 03:14:50;;;;;;;19.03;15.37;;;5.80;99.90;;;3.99;100.00;100124.78;5024604;27;100031;-63
2020/12/15 03:17:20;;;;;;;22.17;16.73;;;5.90;99.90;;;4.00;100.00;100125.63;5024457;27;103114;-62
2020/12/15 03:19:46;;;;;;;19.93;15.80;;;5.80;99.90;;;4.00;100.00;100120.34;5041898;27;100129;-62
2020/12/15 03:22:15;;;;;;;20.73;16.77;;;5.80;99.90;;;3.93;100.00;100120.00;5040969;27;100104;-63
2020/12/15 03:24:46;;;;;;;19.30;15.60;;;5.70;99.90;;;3.93;100.00;100127.94;5004567;27;100338;-63
2020/12/15 03:27:16;;;;;;;19.57;15.50;;;5.80;99.90;;;3.86;100.00;100116.13;5004347;27;102585;-62
2020/12/15 03:29:43;;;;;;;19.90;15.33;;;5.70;99.90;;;3.79;100.00;100120.22;5006251;27;100744;-64
2020/12/15 03:32:11;;;;;;;18.17;15.40;;;5.70;99.90;;;3.74;100.00;100115.28;5003579;27;100099;-63
2020/12/15 03:34:38;;;;;;;20.97;16.03;;;5.60;99.90;;;3.63;100.00;100109.13;5003962;27;100327;-62
2020/12/15 03:37:05;;;;;;;19.20;16.03;;;5.40;99.90;;;3.66;100.00;100111.53;5003857;27;102399;-61
2020/12/15 03:39:39;;;;;;;19.47;16.47;;;5.40;99.90;;;3.72;100.00;100111.91;5020892;27;100177;-63
2020/12/15 03:42:14;;;;;;;20.77;16.53;;;5.50;99.90;;;3.64;100.00;100116.09;5021661;27;100001;-62
2020/12/15 03:44:41;;;;;;;19.40;16.13;;;5.30;99.90;;;3.61;100.00;100115.38;5004443;27;100709;-62
2020/12/15 03:47:11;;;;;;;21.50;16.53;;;5.40;99.90;;;3.65;100.00;100107.22;5003833;27;103026;-63
2020/12/15 03:49:38;;;;;;;22.63;15.93;;;5.40;99.90;;;3.52;100.00;100109.97;5004527;27;102429;-62
2020/12/15 03:52:06;;;;;;;20.43;16.60;;;5.20;99.90;;;3.56;100.00;100106.13;5006533;27;100075;-63
2020/12/15 03:54:32;;;;;;;20.27;16.23;;;5.30;99.90;;;3.58;100.00;100109.50;5007011;27;100135;-62
2020/12/15 03:57:17;;;;;;;24.03;16.87;;;5.10;99.90;;;3.59;100.00;100106.72;5006339;27;100315;-63
2020/12/15 04:00:17;;;;;;;20.93;16.67;;;5.10;99.90;;;3.54;100.00;100121.28;5008047;27;101098;-63
2020/12/15 04:02:52;;;;;;;21.30;15.77;;;5.20;99.90;;;3.52;100.00;100124.03;5028228;27;100219;-62
2020/12/15 04:05:33;;;;;;;21.37;16.93;;;5.10;99.90;;;3.54;100.00;100126.56;5027893;27;100505;-62
2020/12/15 04:08:01;;;;;;;20.77;16.03;;;5.10;99.90;;;3.56;100.00;100135.22;5027380;27;103404;-62
2020/12/15 04:10:28;;;;;;;20.90;15.77;;;5.10;99.90;;;3.55;100.00;100134.38;5041102;27;102992;-62
2020/12/15 04:12:57;;;;;;;22.63;16.10;;;5.20;99.90;;;3.48;100.00;100138.44;5007114;27;100552;-62
2020/12/15 04:15:30;;;;;;;20.30;16.30;;;5.20;99.90;;;3.51;100.00;100132.09;5007564;27;100232;-64
2020/12/15 04:18:00;;;;;;;23.67;17.83;;;5.20;99.90;;;3.56;100.00;100133.44;5007156;27;102637;-63
2020/12/15 04:20:26;;;;;;;21.47;17.00;;;5.10;99.90;;;3.47;100.00;100142.03;5007229;27;103014;-63
2020/12/15 04:22:53;;;;;;;22.03;16.33;;;5.20;99.90;;;3.48;100.00;100142.88;5006484;27;100130;-62
2020/12/15 04:25:25;;;;;;;23.40;16.97;;;5.20;99.90;;;3.46;100.00;100155.41;5007556;27;100381;-63
2020/12/15 04:27:53;;;;;;;21.20;15.97;;;5.10;99.90;;;3.50;100.00;100156.84;5023663;27;101595;-62
2020/12/15 04:30:20;;;;;;;24.40;17.97;;;4.30;99.90;;;3.47;100.00;100152.63;5023329;27;102436;-62
2020/12/15 04:32:48;;;;;;;19.73;15.00;;;5.00;99.90;;;3.41;100.00;100146.97;5024566;27;100052;-62
2020/12/15 04:35:22;;;;;;;22.90;18.00;;;5.00;99.90;;;3.40;100.00;100143.47;5014646;27;100226;-62
2020/12/15 04:37:52;;;;;;;22.20;17.60;;;5.00;99.90;;;3.46;100.00;100142.19;5006528;27;102605;-63
2020/12/15 04:40:20;;;;;;;24.30;17.00;;;5.10;99.90;;;3.31;100.00;100145.97;5006919;27;102417;-63
2020/12/15 04:42:48;;;;;;;23.40;17.33;;;5.00;99.90;;;3.36;100.00;100147.31;5006810;27;100454;-63
2020/12/15 04:45:18;;;;;;;21.70;16.97;;;4.90;99.90;;;3.46;100.00;100147.47;5006662;27;100346;-62
2020/12/15 04:47:57;;;;;;;24.07;17.37;;;5.20;99.90;;;3.42;100.00;100146.00;5005901;27;103357;-63
2020/12/15 04:50:49;;;;;;;23.40;18.27;;;5.00;99.90;;;3.45;100.00;100136.06;5006591;27;102508;-63
2020/12/15 04:53:23;;;;;;;22.57;17.33;;;5.10;99.90;;;3.36;100.00;100135.88;5006830;27;100218;-63
2020/12/15 04:56:28;;;;;;;24.07;16.87;;;5.10;99.90;;;3.40;100.00;100143.47;5006675;27;100485;-62
2020/12/15 04:59:00;;;;;;;23.27;17.10;;;5.10;99.90;;;3.32;100.00;100134.44;5006025;27;102670;-62
2020/12/15 05:01:37;;;;;;;23.53;18.40;;;5.00;99.90;;;3.41;100.00;100141.69;5020840;27;102006;-63
2020/12/15 05:04:18;;;;;;;24.53;17.43;;;5.00;99.90;;;3.47;100.00;100135.91;5042698;27;100375;-62
2020/12/15 05:06:55;;;;;;;24.57;18.40;;;5.00;99.90;;;3.34;100.00;100143.94;5027999;27;100591;-62
2020/12/15 05:09:29;;;;;;;24.03;19.23;;;5.10;99.90;;;3.35;100.00;100142.13;5026963;27;102848;-63
2020/12/15 05:11:57;;;;;;;25.10;17.83;;;5.00;99.90;;;3.37;100.00;100146.34;5013289;27;102196;-62
2020/12/15 05:14:31;;;;;;;23.93;18.63;;;5.00;99.90;;;3.45;100.00;100148.44;5005660;27;100201;-62
2020/12/15 05:16:58;;;;;;;27.73;18.37;;;5.10;99.90;;;3.35;100.00;100150.91;5023583;27;100487;-62
2020/12/15 05:19:44;;;;;;;22.87;17.90;;;5.10;99.90;;;3.38;100.00;100152.47;5023435;27;102696;-64
2020/12/15 05:22:12;;;;;;;22.27;17.23;;;4.90;99.90;;;3.19;100.00;100155.69;5006030;27;102683;-63
2020/12/15 05:24:49;;;;;;;26.20;18.17;;;5.00;99.90;;;3.16;100.00;100155.91;5006032;27;100086;-62
2020/12/15 05:27:29;;;;;;;23.90;18.73;;;5.00;99.90;;;3.32;100.00;100151.16;5006332;27;100846;-62
2020/12/15 05:30:09;;;;;;;22.40;17.27;;;4.90;99.90;;;3.37;100.00;100145.50;5006350;27;100747;-63
2020/12/15 05:32:51;;;;;;;21.90;16.67;;;4.90;99.90;;;3.30;100.00;100152.22;5006725;27;102312;-62
2020/12/15 05:35:54;;;;;;;27.17;18.23;;;4.90;99.90;;;3.16;100.00;100148.81;4906468;28;100340;-63
2020/12/15 05:38:40;;;;;;;23.50;18.70;;;5.00;99.90;;;3.21;100.00;100157.22;5003150;27;100516;-62
2020/12/15 05:41:20;;;;;;;23.37;18.07;;;5.00;99.90;;;3.23;100.00;100157.97;5005209;27;103288;-62
2020/12/15 05:43:56;;;;;;;25.33;17.30;;;5.00;99.90;;;3.32;100.00;100153.81;5014701;27;102077;-63
2020/12/15 05:46:27;;;;;;;26.90;19.63;;;5.00;99.90;;;3.32;100.00;100155.59;5006807;27;100439;-62
2020/12/15 05:49:02;;;;;;;24.90;19.20;;;4.90;99.90;;;3.25;100.00;100163.13;5007153;27;100090;-63
2020/12/15 05:51:41;;;;;;;26.80;19.23;;;5.00;99.90;;;3.29;100.00;100143.44;5007300;27;101650;-63
2020/12/15 05:54:16;;;;;;;25.20;18.07;;;4.90;99.90;;;3.25;100.00;100142.81;5026352;27;101252;-62
2020/12/15 05:56:43;;;;;;;25.23;19.00;;;4.70;99.90;;;3.32;100.00;100137.94;5008326;27;100267;-63
2020/12/15 05:59:21;;;;;;;27.97;19.70;;;5.00;99.90;;;3.34;100.00;100133.34;5022808;27;100006;-62
2020/12/15 06:01:52;;;;;;;29.00;21.63;;;5.00;99.90;;;3.41;100.00;100134.59;5027552;27;100964;-63
2020/12/15 06:04:20;;;;;;;24.33;19.60;;;4.90;99.90;;;3.40;100.00;100130.25;5026977;27;101492;-62
2020/12/15 06:06:48;;;;;;;27.70;20.77;;;5.10;99.90;;;3.42;100.00;100132.78;5027021;27;100056;-62
2020/12/15 06:09:16;;;;;;;24.17;18.33;;;5.10;99.90;;;3.45;100.00;100138.69;5008069;27;100218;-62
2020/12/15 06:11:45;;;;;;;27.37;18.67;;;5.00;99.90;;;3.39;100.00;100133.00;5007615;27;101924;-63
2020/12/15 06:14:14;;;;;;;23.57;18.23;;;5.00;99.90;;;3.37;100.00;100134.94;5015101;27;100820;-62
2020/12/15 06:16:42;;;;;;;24.90;17.87;;;5.10;99.90;;;3.34;100.00;100138.63;5026947;27;100154;-63
2020/12/15 06:19:10;;;;;;;25.63;19.27;;;5.10;99.90;;;3.38;100.00;100140.09;5027296;27;99832;-62
2020/12/15 06:21:40;;;;;;;28.23;19.60;;;5.00;99.90;;;3.44;100.00;100137.00;5027590;27;100342;-62
2020/12/15 06:24:10;;;;;;;26.70;18.93;;;5.10;99.90;;;3.46;100.00;100140.34;5011735;27;100366;-62
2020/12/15 06:26:36;;;;;;;27.50;19.93;;;5.10;99.90;;;3.43;100.00;100142.41;5007573;27;100092;-62
2020/12/15 06:29:05;;;;;;;25.97;18.60;;;5.00;99.90;;;3.37;100.00;100137.56;5014427;27;100280;-61
2020/12/15 06:31:33;;;;;;;21.07;16.23;;;4.90;99.90;;;3.42;100.00;100141.56;5014050;27;101092;-61
2020/12/15 06:34:02;;;;;;;24.13;16.73;;;5.00;99.90;;;3.39;100.00;100144.44;5013596;27;100625;-62
2020/12/15 06:36:31;;;;;;;24.07;18.37;;;5.00;99.90;;;3.35;100.00;100140.31;5008351;27;100096;-62
2020/12/15 06:39:00;;;;;;;23.63;17.57;;;5.00;99.90;;;3.18;100.00;100144.25;5027312;27;100127;-62
2020/12/15 06:41:28;;;;;;;24.20;17.47;;;4.90;99.90;;;3.16;100.00;100150.63;5026292;27;101306;-63
2020/12/15 06:44:05;;;;;;;23.63;16.73;;;4.90;99.90;;;3.15;100.00;100147.13;5007353;27;100590;-61
2020/12/15 06:46:32;;;;;;;27.77;19.83;;;4.80;99.90;;;3.08;100.00;100148.56;5007474;27;100296;-62
2020/12/15 06:48:59;;;;;;;25.60;17.93;;;4.80;99.90;;;3.08;100.00;100143.25;5007471;27;99964;-62
2020/12/15 06:51:30;;;;;;;27.33;18.23;;;4.80;99.90;;;3.04;100.00;100143.59;5019475;27;101529;-62
2020/12/15 06:54:01;;;;;;;24.93;17.00;;;4.70;99.90;;;3.01;100.00;100142.00;5027060;27;100492;-63
2020/12/15 06:56:29;;;;;;;26.73;17.73;;;4.60;99.90;;;2.99;100.00;100149.22;5026158;27;100336;-62
2020/12/15 06:59:05;;;;;;;27.30;18.97;;;4.60;99.90;;;2.90;100.00;100149.91;5024083;27;100316;-62
2020/12/15 07:01:33;;;;;;;24.27;18.20;;;4.60;99.90;;;2.98;100.00;100144.88;5023431;27;101167;-61
2020/12/15 07:04:01;;;;;;;26.17;18.13;;;4.60;99.90;;;2.96;100.00;100146.81;5024237;27;100308;-63
2020/12/15 07:06:28;;;;;;;27.60;19.33;;;4.50;99.90;;;2.91;100.00;100159.50;5014656;27;100206;-62
2020/12/15 07:08:59;;;;;;;28.53;18.90;;;4.60;99.90;;;2.94;100.00;100150.53;5004885;27;100456;-62
2020/12/15 07:11:28;;;;;;;27.97;19.63;;;4.50;99.90;;;2.94;100.00;100153.16;5004360;27;100589;-62
2020/12/15 07:13:59;;;;;;;27.67;19.53;;;4.60;99.90;;;2.95;100.00;100158.34;5020826;27;100966;-62
2020/12/15 07:16:27;;;;;;;28.90;19.03;;;4.60;99.90;;;2.97;100.00;100152.94;5024904;27;100066;-62
2020/12/15 07:18:54;;;;;;;27.37;20.17;;;4.60;99.90;;;2.99;100.00;100167.72;5024842;27;100228;-62
2020/12/15 07:21:23;;;;;;;29.23;22.17;;;4.60;99.90;;;3.01;100.00;100165.81;5023333;27;101852;-62
2020/12/15 07:23:50;;;;;;;30.23;21.90;;;4.60;99.90;;;3.00;100.00;100172.03;5023536;27;100911;-62
2020/12/15 07:26:18;;;;;;;30.00;20.90;;;4.70;99.90;;;3.04;100.00;100170.03;5024309;27;100065;-62
2020/12/15 07:28:48;;;;;;;28.17;19.97;;;4.80;99.90;;;3.09;100.00;100157.31;5022153;27;100083;-61
2020/12/15 07:31:26;;;;;;;24.83;18.60;;;4.80;99.90;;;3.15;100.00;100157.69;5024211;27;101303;-63
2020/12/15 07:34:09;;;;;;;26.77;20.03;;;5.00;99.90;;;3.11;100.00;100148.31;5023449;27;101257;-64
2020/12/15 07:36:38;;;;;;;26.27;18.23;;;4.70;99.90;;;3.15;100.00;100155.06;5023930;27;100399;-62
2020/12/15 07:39:06;;;;;;;26.43;19.13;;;4.80;99.90;;;3.19;100.00;100151.22;5024718;27;100078;-62
2020/12/15 07:41:37;;;;;;;24.97;18.37;;;4.80;99.90;;;3.25;100.00;100144.63;5023897;27;100782;-61
2020/12/15 07:44:08;;;;;;;27.23;18.30;;;4.90;99.90;;;3.29;100.00;100158.47;5023802;27;100913;-63
2020/12/15 07:46:35;;;;;;;24.20;17.83;;;4.90;99.90;;;3.30;100.00;100160.16;5021383;27;100260;-63
2020/12/15 07:49:04;;;;;;;24.83;17.37;;;5.00;99.90;;;3.33;100.00;100150.22;5004741;27;100558;-63
2020/12/15 07:51:32;;;;;;;25.80;19.47;;;5.00;99.90;;;3.37;100.00;100148.16;5002606;27;101008;-62
2020/12/15 07:53:59;;;;;;;25.03;19.80;;;5.10;99.90;;;3.41;100.00;100150.47;5003515;27;100824;-62
2020/12/15 07:56:26;;;;;;;24.47;17.73;;;5.20;99.90;;;3.37;100.00;100149.00;5003625;27;100027;-62
2020/12/15 07:58:54;;;;;;;26.60;19.57;;;5.10;99.90;;;3.38;100.00;100148.03;5003550;27;100079;-63
2020/12/15 08:01:24;;;;;;;24.27;18.37;;;5.30;99.90;;;3.40;100.00;100158.50;5002973;27;101496;-62
2020/12/15 08:04:05;;;;;;;23.70;17.13;;;5.30;99.90;;;3.45;100.00;100159.00;5003600;27;100661;-62
2020/12/15 08:06:34;;;;;;;22.83;16.77;;;5.40;99.90;;;3.46;100.00;100158.06;5003621;27;100069;-62
2020/12/15 08:09:02;;;;;;;23.97;16.83;;;5.30;99.90;;;3.48;100.00;100166.69;5013626;27;100056;-62
2020/12/15 08:11:29;;;;;;;25.87;17.33;;;5.30;99.90;;;3.49;100.00;100158.66;5022957;27;100660;-61
2020/12/15 08:13:55;;;;;;;22.97;17.27;;;5.40;99.90;;;3.54;100.00;100160.97;5023313;27;100968;-62
2020/12/15 08:16:25;;;;;;;24.97;16.97;;;5.30;99.90;;;3.53;100.00;100156.63;5024443;27;100233;-61
2020/12/15 08:18:59;;;;;;;25.57;17.73;;;5.40;99.90;;;3.58;100.00;100155.31;5023346;27;100150;-62
2020/12/15 08:21:43;;;;;;;23.67;17.70;;;5.40;99.90;;;3.56;100.00;100154.59;5023270;27;100586;-61
2020/12/15 08:24:11;;;;;;;23.37;16.67;;;5.60;99.90;;;3.61;100.00;100160.34;5006257;27;100691;-61
2020/12/15 08:26:39;;;;;;;25.27;17.03;;;5.50;99.90;;;3.65;100.00;100144.25;5002960;27;100066;-61
2020/12/15 08:29:08;;;;;;;23.93;16.53;;;5.50;99.90;;;3.67;100.00;100142.34;5006601;27;100142;-62
2020/12/15 08:31:36;;;;;;;21.07;15.40;;;5.50;99.90;;;3.69;100.00;100135.97;5004591;27;100097;-62
2020/12/15 08:34:10;;;;;;;22.17;16.07;;;5.60;99.90;;;3.73;100.00;100145.34;5003437;27;100873;-62
2020/12/15 08:36:42;;;;;;;22.47;16.47;;;5.60;99.90;;;3.77;100.00;100152.09;4999897;27;99998;-62
2020/12/15 08:39:11;;;;;;;21.50;16.03;;;5.60;99.90;;;3.79;100.00;100146.69;5004416;27;100057;-62
2020/12/15 08:41:47;;;;;;;21.47;16.27;;;5.80;99.90;;;3.79;100.00;100141.41;5006184;27;100860;-63
2020/12/15 08:44:15;;;;;;;21.20;15.23;;;5.60;99.90;;;3.83;100.00;100153.44;5006401;27;100250;-62
2020/12/15 08:46:42;;;;;;;20.07;15.30;;;5.70;99.90;;;3.82;100.00;100154.41;5010884;27;100509;-62
2020/12/15 08:49:13;;;;;;;21.93;15.80;;;5.60;99.90;;;3.84;100.00;100155.94;5023165;27;100176;-61
2020/12/15 08:51:40;;;;;;;20.77;15.20;;;5.80;99.90;;;3.84;100.00;100157.75;5011347;27;101729;-63
2020/12/15 08:54:08;;;;;;;20.60;15.77;;;5.90;99.90;;;3.86;100.00;100158.47;5006480;27;101414;-60
2020/12/15 08:56:34;;;;;;;19.67;14.43;;;6.80;99.90;;;3.88;100.00;100148.63;5004017;27;100325;-61
2020/12/15 08:59:10;;;;;;;19.37;15.37;;;6.10;99.90;;;3.88;100.00;100148.63;5006010;27;100505;-62
2020/12/15 09:01:37;;;;;;;19.93;14.40;;;7.10;99.90;;;3.87;100.00;100146.94;5005711;27;101586;-61
2020/12/15 09:04:04;;;;;;;20.47;15.20;;;5.80;99.90;;;3.91;100.00;100143.09;5005922;27;100528;-61
2020/12/15 09:06:31;;;;;;;17.87;14.40;;;5.90;99.90;;;3.91;100.00;100136.00;5006407;27;100165;-62
2020/12/15 09:08:58;;;;;;;17.93;13.97;;;5.90;99.90;;;3.93;100.00;100133.22;5005884;27;100246;-62
2020/12/15 09:11:24;;;;;;;20.77;15.10;;;5.90;99.90;;;3.91;100.00;100117.47;5005318;27;101051;-61
2020/12/15 09:13:56;;;;;;;21.10;14.97;;;6.00;99.90;;;3.96;100.00;100109.13;5005948;27;101275;-62
2020/12/15 09:16:28;;;;;;;18.47;13.53;;;6.00;99.90;;;4.03;100.00;100125.41;5005704;27;99965;-62
2020/12/15 09:18:55;;;;;;;23.30;15.27;;;6.00;99.90;;;4.04;100.00;100122.66;5006219;27;100223;-61
2020/12/15 09:21:24;;;;;;;19.30;13.77;;;4.70;99.90;;;4.10;100.00;100116.84;5005647;27;101288;-62
2020/12/15 09:23:52;;;;;;;17.07;14.20;;;6.00;99.90;;;4.15;100.00;100116.50;5005917;27;100381;-62
2020/12/15 09:26:21;;;;;;;16.83;13.77;;;6.00;99.90;;;4.19;100.00;100147.06;5005706;27;100085;-62
2020/12/15 09:28:48;;;;;;;18.93;13.73;;;6.40;99.90;;;4.21;100.00;100147.78;5006213;27;100068;-61
2020/12/15 09:31:15;;;;;;;16.73;12.80;;;6.10;99.90;;;4.27;100.00;100155.25;5006150;27;101214;-61
2020/12/15 09:33:42;;;;;;;18.43;13.70;;;6.20;99.90;;;4.24;100.00;100158.97;5007388;27;100623;-62
2020/12/15 09:36:12;;;;;;;18.10;12.30;;;6.20;99.90;;;4.34;100.00;100153.78;5013422;27;100223;-61
2020/12/15 09:38:39;;;;;;;16.50;12.57;;;6.40;99.90;;;4.40;100.00;100150.66;5005958;27;100183;-62
2020/12/15 09:41:06;;;;;;;17.20;13.07;;;6.40;99.90;;;4.39;100.00;100140.19;5005111;27;101034;-61
2020/12/15 09:43:33;;;;;;;17.97;13.83;;;6.40;99.90;;;4.42;100.00;100154.03;5005631;27;100296;-62
2020/12/15 09:46:01;;;;;;;20.77;13.10;;;6.40;99.90;;;4.47;100.00;100146.56;5005624;27;100223;-61
2020/12/15 09:48:28;;;;;;;18.93;13.43;;;6.50;99.90;;;4.52;100.00;100148.84;5005458;27;100055;-62
2020/12/15 09:50:55;;;;;;;16.43;12.93;;;6.50;99.90;;;4.56;100.00;100145.00;5004010;27;101659;-62
2020/12/15 09:53:21;;;;;;;19.30;13.40;;;6.60;99.90;;;4.60;100.00;100144.59;5005112;27;100795;-62
2020/12/15 09:55:49;;;;;;;17.67;13.57;;;6.60;99.90;;;4.71;100.00;100138.44;5005293;27;100359;-61
2020/12/15 09:58:15;;;;;;;18.53;13.40;;;6.70;99.90;;;4.70;100.00;100142.88;5005709;27;100151;-62
2020/12/15 10:00:42;;;;;;;17.43;13.43;;;6.70;99.90;;;4.80;100.00;100147.47;5004545;27;101202;-61
2020/12/15 10:03:08;;;;;;;17.03;12.97;;;6.90;99.90;;;4.80;100.00;100139.50;5005532;27;100732;-62
2020/12/15 10:05:34;;;;;;;16.60;12.80;;;6.90;99.90;;;4.86;100.00;100137.19;5005409;27;100117;-61
2020/12/15 10:08:01;;;;;;;17.30;13.13;;;6.80;99.90;;;4.91;100.00;100132.38;5005727;27;99919;-62
2020/12/15 10:10:27;;;;;;;17.23;12.67;;;6.10;99.90;;;4.92;100.00;100146.47;5004786;27;100447;-62
2020/12/15 10:12:55;;;;;;;16.27;12.90;;;7.10;99.90;;;4.90;100.00;100151.88;5004710;27;100496;-61
2020/12/15 10:15:21;;;;;;;19.30;13.30;;;7.20;99.90;;;4.96;100.00;100151.38;5004771;27;100372;-61